createdAt,value
2018-04-02T00:00:51.313Z,13.83
2018-04-02T00:05:54.354Z,19.30
2018-04-02T00:10:57.574Z,16.07
2018-04-02T00:16:00.708Z,17.00
2018-04-02T00:21:03.809Z,15.93
2018-04-02T00:26:06.905Z,16.17
2018-04-02T00:31:09.978Z,16.20
2018-04-02T00:36:12.908Z,19.03
2018-04-02T00:41:16.304Z,16.60
2018-04-02T00:46:19.495Z,15.00
2018-04-02T00:51:22.398Z,17.33
2018-04-02T00:56:25.509Z,15.33
2018-04-02T01:01:28.780Z,18.27
2018-04-02T01:06:31.784Z,17.40
2018-04-02T01:11:35.326Z,13.70
2018-04-02T01:16:38.323Z,17.80
2018-04-02T01:21:41.827Z,13.90
2018-04-02T01:26:44.745Z,14.40
2018-04-02T01:31:49.250Z,15.00
2018-04-02T01:36:52.331Z,12.67
2018-04-02T01:41:55.498Z,14.10
2018-04-02T01:46:58.465Z,14.37
2018-04-02T01:52:01.505Z,13.00
2018-04-02T01:57:04.603Z,10.20
2018-04-02T02:02:07.782Z,11.40
2018-04-02T02:07:12.329Z,12.13
2018-04-02T02:12:15.598Z,13.10
2018-04-02T02:17:18.913Z,11.20
2018-04-02T02:22:21.985Z,12.33
2018-04-02T02:27:24.849Z,12.20
2018-04-02T02:32:27.794Z,9.40
2018-04-02T02:37:30.723Z,13.90
2018-04-02T02:42:33.890Z,10.70
2018-04-02T02:47:36.884Z,13.10
2018-04-02T02:52:40.357Z,11.50
2018-04-02T02:57:43.878Z,12.10
2018-04-02T03:02:46.842Z,13.30
2018-04-02T03:07:50.969Z,11.17
2018-04-02T03:12:54.453Z,10.40
2018-04-02T03:17:57.418Z,10.77
2018-04-02T03:23:00.325Z,10.23
2018-04-02T03:28:03.938Z,9.00
2018-04-02T03:33:07.614Z,8.60
2018-04-02T03:38:10.654Z,10.07
2018-04-02T03:43:15.504Z,9.93
2018-04-02T03:48:18.422Z,9.70
2018-04-02T03:54:24.440Z,8.37
2018-04-02T03:59:27.382Z,9.00
2018-04-02T04:04:30.460Z,9.27
2018-04-02T04:09:34.196Z,9.77
2018-04-02T04:14:37.297Z,10.07
2018-04-02T04:19:40.964Z,8.47
2018-04-02T04:24:44.165Z,8.00
2018-04-02T04:29:47.465Z,8.13
2018-04-02T04:34:50.657Z,7.93
2018-04-02T04:39:54.666Z,7.27
2018-04-02T04:44:57.647Z,8.60
2018-04-02T04:50:00.829Z,7.53
2018-04-02T04:55:03.641Z,7.40
2018-04-02T05:00:06.590Z,7.63
2018-04-02T05:05:09.573Z,7.07
2018-04-02T05:10:12.538Z,8.03
2018-04-02T05:15:15.397Z,7.70
2018-04-02T05:20:18.226Z,5.73
2018-04-02T05:25:21.035Z,6.27
2018-04-02T05:30:24.027Z,7.90
2018-04-02T05:35:26.938Z,6.07
2018-04-02T05:40:30.873Z,6.47
2018-04-02T05:45:34.286Z,7.23
2018-04-02T05:50:37.271Z,6.87
2018-04-02T05:55:40.305Z,6.10
2018-04-02T06:00:43.415Z,5.90
2018-04-02T06:05:47.090Z,5.10
2018-04-02T06:10:50.157Z,5.50
2018-04-02T06:15:53.342Z,5.10
2018-04-02T06:20:56.534Z,5.37
2018-04-02T06:25:59.509Z,6.00
2018-04-02T06:31:02.541Z,5.60
2018-04-02T06:36:06.124Z,5.13
2018-04-02T06:41:09.257Z,5.90
2018-04-02T06:52:18.944Z,6.00
2018-04-02T06:57:22.030Z,6.20
2018-04-02T07:02:26.052Z,5.60
2018-04-02T07:07:29.137Z,5.33
2018-04-02T07:12:31.924Z,5.80
2018-04-02T07:17:34.906Z,4.30
2018-04-02T07:22:37.929Z,5.17
2018-04-02T07:27:40.760Z,6.40
2018-04-02T07:32:43.960Z,5.50
2018-04-02T07:37:46.884Z,4.80
2018-04-02T07:42:49.765Z,5.50
2018-04-02T07:47:53.086Z,7.77
2018-04-02T07:52:56.298Z,5.47
2018-04-02T07:57:59.334Z,5.40
2018-04-02T08:03:02.215Z,5.57
2018-04-02T08:08:05.311Z,4.80
2018-04-02T08:13:08.258Z,4.33
2018-04-02T08:18:11.314Z,4.60
2018-04-02T08:23:14.678Z,3.57
2018-04-02T08:28:17.528Z,3.93
2018-04-02T08:33:20.309Z,4.13
2018-04-02T08:38:23.138Z,5.33
2018-04-02T08:43:26.043Z,3.70
2018-04-02T08:48:28.853Z,3.30
2018-04-02T08:53:31.814Z,6.00
2018-04-02T08:58:34.954Z,4.07
2018-04-02T09:03:38.094Z,3.13
2018-04-02T09:08:41.178Z,2.80
2018-04-02T09:13:44.018Z,2.57
2018-04-02T09:18:47.240Z,3.33
2018-04-02T09:23:50.302Z,3.80
2018-04-02T09:28:53.147Z,3.00
2018-04-02T09:33:56.071Z,2.10
2018-04-02T09:38:58.873Z,2.67
2018-04-02T09:44:01.646Z,2.30
2018-04-02T09:49:05.058Z,2.63
2018-04-02T09:54:07.932Z,2.03
2018-04-02T09:59:10.778Z,2.40
2018-04-02T10:04:13.625Z,2.17
2018-04-02T10:09:16.446Z,2.47
2018-04-02T10:14:19.450Z,3.10
2018-04-02T10:19:25.338Z,2.80
2018-04-02T10:24:28.598Z,2.20
2018-04-02T10:29:31.424Z,2.30
2018-04-02T10:34:34.534Z,2.00
2018-04-02T10:39:37.447Z,2.47
2018-04-02T10:44:40.325Z,3.53
2018-04-02T10:49:43.840Z,1.90
2018-04-02T10:54:46.681Z,3.20
2018-04-02T10:59:49.746Z,2.60
2018-04-02T11:04:53.026Z,2.17
2018-04-02T11:09:55.912Z,2.07
2018-04-02T11:14:58.829Z,2.73
2018-04-02T11:20:01.993Z,1.60
2018-04-02T11:25:05.017Z,2.07
2018-04-02T11:30:11.566Z,2.17
2018-04-02T11:35:15.238Z,2.30
2018-04-02T11:40:18.117Z,2.10
2018-04-02T11:45:20.952Z,1.93
2018-04-02T11:50:24.743Z,1.97
2018-04-02T11:55:28.276Z,2.10
2018-04-02T12:00:31.355Z,1.90
2018-04-02T12:05:35.030Z,1.80
2018-04-02T12:10:37.985Z,2.10
2018-04-02T12:15:40.926Z,2.10
2018-04-02T12:20:44.136Z,2.40
2018-04-02T12:25:47.028Z,2.70
2018-04-02T12:30:49.995Z,2.57
2018-04-02T12:35:52.906Z,2.70
2018-04-02T12:40:55.783Z,2.87
2018-04-02T12:45:59.473Z,2.43
2018-04-02T12:51:02.593Z,2.30
2018-04-02T12:56:05.595Z,2.87
2018-04-02T13:01:08.596Z,2.37
2018-04-02T13:06:11.593Z,3.07
2018-04-02T13:11:14.596Z,2.70
2018-04-02T13:16:17.564Z,2.57
2018-04-02T13:21:20.812Z,2.33
2018-04-02T13:26:23.800Z,2.63
2018-04-02T13:31:26.832Z,2.00
2018-04-02T13:36:29.820Z,3.73
2018-04-02T13:41:36.030Z,1.90
2018-04-02T13:46:39.685Z,1.50
2018-04-02T13:51:42.777Z,2.63
2018-04-02T13:56:45.802Z,2.97
2018-04-02T14:01:48.907Z,2.47
2018-04-02T14:06:51.986Z,3.87
2018-04-02T14:11:55.062Z,2.43
2018-04-02T14:16:58.118Z,2.10
2018-04-02T14:22:01.276Z,2.50
2018-04-02T14:27:05.317Z,2.50
2018-04-02T14:32:08.457Z,3.30
2018-04-02T14:37:11.476Z,2.50
2018-04-02T14:42:14.885Z,2.63
2018-04-02T14:47:17.769Z,3.07
2018-04-02T14:52:21.041Z,2.30
2018-04-02T14:57:23.922Z,2.10
2018-04-02T15:02:26.748Z,2.40
2018-04-02T15:07:29.834Z,2.53
2018-04-02T15:12:32.833Z,2.53
2018-04-02T15:17:35.886Z,2.87
2018-04-02T15:22:39.275Z,1.83
2018-04-02T15:27:42.432Z,2.20
2018-04-02T15:32:45.471Z,2.10
2018-04-02T15:37:48.663Z,1.70
2018-04-02T15:42:51.693Z,1.70
2018-04-02T15:47:54.780Z,1.77
2018-04-02T15:53:02.232Z,1.73
2018-04-02T15:58:05.916Z,1.80
2018-04-02T16:03:09.288Z,2.67
2018-04-02T16:08:13.223Z,1.80
2018-04-02T16:13:16.331Z,2.73
2018-04-02T16:18:20.064Z,2.00
2018-04-02T16:23:23.603Z,2.13
2018-04-02T16:28:27.163Z,2.10
2018-04-02T16:33:30.314Z,2.33
2018-04-02T16:38:33.464Z,3.00
2018-04-02T16:43:36.837Z,2.47
2018-04-02T16:48:40.020Z,2.60
2018-04-02T16:53:43.154Z,2.73
2018-04-02T16:58:46.616Z,2.80
2018-04-02T17:03:50.132Z,3.33
2018-04-02T17:08:53.348Z,3.80
2018-04-02T17:13:56.705Z,2.53
2018-04-02T17:18:59.941Z,3.30
2018-04-02T17:24:03.558Z,4.37
2018-04-02T17:29:06.742Z,3.33
2018-04-02T17:34:09.979Z,3.27
2018-04-02T17:39:13.673Z,3.40
2018-04-02T17:44:16.811Z,2.83
2018-04-02T17:49:20.724Z,5.10
2018-04-02T17:54:24.120Z,3.17
2018-04-02T17:59:27.304Z,3.20
2018-04-02T18:04:30.948Z,4.43
2018-04-02T18:09:34.916Z,4.00
2018-04-02T18:14:38.340Z,4.37
2018-04-02T18:19:41.520Z,4.67
2018-04-02T18:24:44.743Z,3.53
2018-04-02T18:29:47.956Z,4.73
2018-04-02T18:34:51.343Z,4.60
2018-04-02T18:39:54.680Z,3.30
2018-04-02T18:44:58.485Z,3.17
2018-04-02T18:50:01.728Z,4.40
2018-04-02T18:55:05.281Z,3.90
2018-04-02T19:00:08.434Z,2.93
2018-04-02T19:05:12.585Z,4.27
2018-04-02T19:10:16.992Z,3.63
2018-04-02T19:15:24.382Z,3.27
2018-04-02T19:20:28.276Z,4.70
2018-04-02T19:25:31.728Z,4.07
2018-04-02T19:30:36.133Z,3.70
2018-04-02T19:35:41.732Z,4.73
2018-04-02T19:40:45.033Z,3.90
2018-04-02T19:45:48.202Z,3.57
2018-04-02T19:50:51.709Z,4.70
2018-04-02T19:55:56.268Z,3.90
2018-04-02T20:00:59.402Z,5.70
2018-04-02T20:06:03.059Z,4.10
2018-04-02T20:11:06.216Z,4.73
2018-04-02T20:16:09.446Z,4.87
2018-04-02T20:21:12.592Z,5.53
2018-04-02T20:26:15.823Z,5.97
2018-04-02T20:31:19.309Z,4.77
2018-04-02T20:36:22.853Z,3.80
2018-04-02T20:41:26.066Z,4.90
2018-04-02T20:46:29.232Z,5.23
2018-04-02T20:51:32.689Z,6.63
2018-04-02T20:56:37.420Z,7.10
2018-04-02T21:01:40.561Z,7.57
2018-04-02T21:06:43.641Z,7.70
2018-04-02T21:11:51.397Z,7.40
2018-04-02T21:16:54.468Z,9.97
2018-04-02T21:21:57.577Z,8.20
2018-04-02T21:27:00.714Z,9.60
2018-04-02T21:32:03.694Z,10.63
2018-04-02T21:37:06.698Z,10.43
2018-04-02T21:42:09.997Z,10.67
2018-04-02T21:47:13.355Z,11.50
2018-04-02T21:52:16.470Z,9.40
2018-04-02T21:57:19.478Z,11.10
2018-04-02T22:02:22.461Z,10.93
2018-04-02T22:07:25.713Z,12.23
2018-04-02T22:12:28.677Z,11.57
2018-04-02T22:17:31.682Z,12.67
2018-04-02T22:22:34.553Z,12.33
2018-04-02T22:27:37.545Z,9.63
2018-04-02T22:32:40.383Z,13.40
2018-04-02T22:37:43.252Z,9.30
2018-04-02T22:42:48.208Z,9.80
2018-04-02T22:47:51.106Z,10.50
2018-04-02T22:52:53.981Z,9.60
2018-04-02T22:57:57.013Z,11.40
2018-04-02T23:02:59.863Z,12.33
2018-04-02T23:08:02.894Z,15.70
2018-04-02T23:13:05.679Z,14.17
2018-04-02T23:18:09.158Z,8.60
2018-04-02T23:23:11.989Z,8.37
2018-04-02T23:28:15.969Z,5.83
2018-04-02T23:33:19.148Z,11.80
2018-04-02T23:38:22.338Z,10.67
2018-04-02T23:43:25.422Z,7.50
2018-04-02T23:48:29.146Z,12.90
2018-04-02T23:53:32.138Z,10.10
2018-04-02T23:58:35.089Z,11.33
